Country
Station

 

Weather  for  Moanda  -  Gabon    Gabon

  
28 °C (82 °F)
    
 
 

Current METAR for Moanda is :

FOOD 272030Z 22005KT 180V240 8000 TS SCT011 FEW018CB SCT033 28/26 Q1010 NOSIG

 

This is a report for Moanda - Gabon.
 
The report was made 547 hours and 11 minutes ago, at 20:30 UTC .
The wind was blowing at a speed of 2.6 meters per second (5.8 miles per hour) from southwest (220°), varying between south (180°) and west/southwest (240°).
 
The temperature was 28 °C (82 °F), with a dew-point at 26 °C (79 °F).
The temperature felt like 33 °C (91 °F).
 
The atmospheric pressure was 1010 hPa (29.83 inHg).
The relative humidity was 88.9%.
 
There were scattered clouds at a height of 335 meters (1100 feet), a few cumulonimbus clouds at a height of 549 meters (1800 feet) and scattered clouds at a height of 1006 meters (3300 feet).
 
The overall visibility was 8.0 kilometers (5.0 miles).
 
Currently thunderstorm.

 
 
 
 

Country :   A   B   C   D   E   F   G   H   I   J   K   L   M   N   O   P   Q   R   S   T   U   V   W   Y   Z

 

Site Info  |  Disclaimer  |  Credits  |  Privacy
Contact us  |  Add to favorites
© 2013-2018 METARs - All rights reserved